Time;durP1;ratioP1;P1;durP2;ratioP2;P2;SDS_P1;SDS_P2;PMS_P1;PMS_P2;Temp;Humidity;BMP_temperature;BMP_pressure;BME280_temperature;BME280_humidity;BME280_pressure;Samples;Min_cycle;Max_cycle;Signal;HPM_P1;HPM_P2
2021/04/17 00:00:56;;;;;;;5.57;4.72;;;6.00;63.10;;;;;;5105428;28;27435;-60
2021/04/17 00:04:24;;;;;;;7.47;4.82;;;5.90;63.10;;;;;;5103994;28;27470;-59
2021/04/17 00:08:19;;;;;;;7.68;4.82;;;5.90;63.20;;;;;;5104196;28;27365;-60
2021/04/17 00:11:53;;;;;;;7.45;5.55;;;5.80;63.40;;;;;;5105499;28;27453;-60
2021/04/17 00:15:09;;;;;;;9.75;6.93;;;5.80;63.50;;;;;;5102189;28;27424;-60
2021/04/17 00:18:21;;;;;;;10.80;6.05;;;5.70;63.50;;;;;;5105379;28;27331;-60
2021/04/17 00:21:48;;;;;;;12.38;7.63;;;5.70;63.60;;;;;;5104661;28;27510;-60
2021/04/17 00:25:36;;;;;;;13.95;7.88;;;5.60;63.60;;;;;;5103178;27;27554;-60
2021/04/17 00:29:27;;;;;;;12.35;7.03;;;5.50;63.80;;;;;;5105247;28;27353;-60
2021/04/17 00:32:28;;;;;;;8.20;5.80;;;5.50;63.80;;;;;;5104052;28;27374;-60
2021/04/17 00:35:33;;;;;;;8.35;6.03;;;5.40;63.80;;;;;;5105110;28;27473;-60
2021/04/17 00:39:04;;;;;;;8.40;6.05;;;5.40;63.90;;;;;;5102052;28;27397;-60
2021/04/17 00:42:04;;;;;;;8.10;5.25;;;5.30;63.90;;;;;;5103560;27;27356;-60
2021/04/17 00:45:10;;;;;;;8.48;5.35;;;5.20;63.80;;;;;;5105211;28;27469;-60
2021/04/17 00:48:17;;;;;;;10.52;5.57;;;5.20;64.00;;;;;;5104863;28;27415;-60
2021/04/17 00:51:43;;;;;;;8.43;5.63;;;5.10;63.90;;;;;;5104642;28;27411;-60
2021/04/17 00:54:49;;;;;;;8.60;6.00;;;5.10;64.00;;;;;;5104887;28;27360;-60
2021/04/17 00:58:16;;;;;;;9.48;5.88;;;5.10;64.00;;;;;;5100769;28;27450;-59
2021/04/17 01:01:57;;;;;;;9.65;6.05;;;5.00;64.00;;;;;;5103147;28;27962;-59
2021/04/17 01:05:11;;;;;;;7.65;5.15;;;5.00;64.10;;;;;;5102384;28;27632;-60
2021/04/17 01:08:34;;;;;;;7.53;4.93;;;5.00;64.20;;;;;;5100617;28;27465;-60
2021/04/17 01:11:45;;;;;;;6.53;5.10;;;4.90;64.20;;;;;;5104576;28;26933;-60
2021/04/17 01:14:56;;;;;;;6.97;5.18;;;4.90;64.40;;;;;;5104486;28;27415;-60
2021/04/17 01:18:11;;;;;;;6.18;4.80;;;4.80;64.30;;;;;;5102030;28;27516;-59
2021/04/17 01:21:11;;;;;;;8.98;5.22;;;4.80;64.40;;;;;;5103112;28;27504;-60
2021/04/17 01:24:36;;;;;;;6.75;4.90;;;4.80;64.50;;;;;;5104679;28;27326;-60
2021/04/17 01:28:02;;;;;;;10.07;5.38;;;4.70;64.50;;;;;;5104639;28;27857;-60
2021/04/17 01:31:31;;;;;;;6.72;4.93;;;4.70;64.50;;;;;;5101223;28;27394;-59
2021/04/17 01:34:39;;;;;;;7.18;4.80;;;4.70;64.70;;;;;;5104425;28;27443;-60
2021/04/17 01:37:42;;;;;;;7.28;5.07;;;4.60;64.60;;;;;;5103634;28;27389;-59
2021/04/17 01:40:52;;;;;;;7.03;5.10;;;4.60;64.70;;;;;;5103728;28;27888;-59
2021/04/17 01:43:53;;;;;;;7.03;5.07;;;4.50;64.80;;;;;;5103347;28;27510;-58
2021/04/17 01:47:00;;;;;;;6.65;4.93;;;4.50;64.80;;;;;;5101316;28;27560;-58
2021/04/17 01:50:23;;;;;;;8.48;4.45;;;4.50;65.00;;;;;;5103462;28;27385;-59
2021/04/17 01:53:52;;;;;;;7.13;4.85;;;4.40;65.00;;;;;;5100768;28;27341;-59
2021/04/17 01:57:17;;;;;;;6.63;4.50;;;4.40;65.10;;;;;;5103851;28;27536;-59
2021/04/17 02:00:03;;;;;;;8.68;5.53;;;4.40;65.00;;;;;;5103342;28;27463;-61
2021/04/17 02:03:25;;;;;;;7.80;5.30;;;4.40;65.10;;;;;;5102979;28;27499;-59
2021/04/17 02:06:38;;;;;;;6.40;5.07;;;4.40;65.10;;;;;;5103262;28;27371;-58
2021/04/17 02:09:52;;;;;;;7.35;5.13;;;4.30;65.20;;;;;;5103580;28;27386;-58
2021/04/17 02:13:05;;;;;;;7.10;5.03;;;4.30;65.20;;;;;;5103840;28;27409;-58
2021/04/17 02:16:12;;;;;;;7.15;4.75;;;4.20;65.20;;;;;;5103515;28;26961;-59
2021/04/17 02:19:31;;;;;;;6.75;4.95;;;4.20;65.30;;;;;;5103800;28;27461;-60
2021/04/17 02:23:03;;;;;;;8.85;5.70;;;4.20;65.40;;;;;;5103439;28;27403;-60
2021/04/17 02:26:16;;;;;;;6.93;5.25;;;4.20;65.50;;;;;;5103390;28;27352;-59
2021/04/17 02:29:45;;;;;;;8.57;5.60;;;4.20;65.80;;;;;;5103599;28;27347;-60
2021/04/17 02:33:34;;;;;;;6.55;4.97;;;4.20;65.80;;;;;;5103055;28;27432;-59
2021/04/17 02:36:32;;;;;;;9.10;6.15;;;4.10;65.80;;;;;;5103148;28;27474;-59
2021/04/17 02:40:05;;;;;;;12.80;5.32;;;4.10;65.80;;;;;;5102982;28;27414;-59
2021/04/17 02:42:49;;;;;;;7.53;4.57;;;4.10;65.90;;;;;;5101690;28;27413;-61
2021/04/17 02:46:03;;;;;;;6.35;5.20;;;4.00;65.70;;;;;;5070394;28;27411;-58
2021/04/17 02:49:17;;;;;;;6.72;4.90;;;4.00;65.70;;;;;;5102571;28;27511;-59
2021/04/17 02:52:18;;;;;;;8.32;5.00;;;4.00;65.90;;;;;;5106849;28;27419;-59
2021/04/17 02:55:31;;;;;;;8.88;5.55;;;4.00;65.90;;;;;;5106954;28;27358;-59
2021/04/17 02:58:59;;;;;;;8.95;5.25;;;3.90;65.90;;;;;;5106239;28;27437;-59
2021/04/17 03:02:44;;;;;;;7.75;5.35;;;3.90;66.00;;;;;;5103075;28;27533;-59
2021/04/17 03:05:55;;;;;;;6.85;5.32;;;3.90;66.00;;;;;;5105226;28;27518;-59
2021/04/17 03:08:55;;;;;;;14.65;5.88;;;3.90;66.00;;;;;;5104933;28;27399;-56
2021/04/17 03:12:26;;;;;;;7.45;5.28;;;3.90;66.00;;;;;;5106508;28;27343;-59
2021/04/17 03:15:40;;;;;;;8.45;6.10;;;3.80;66.00;;;;;;5104715;28;27656;-59
2021/04/17 03:18:51;;;;;;;8.80;5.85;;;3.80;66.00;;;;;;5106221;28;27442;-58
2021/04/17 03:21:51;;;;;;;7.13;5.13;;;3.80;66.00;;;;;;5105110;28;28053;-59
2021/04/17 03:25:05;;;;;;;8.95;5.95;;;3.80;65.90;;;;;;5106126;28;27473;-58
2021/04/17 03:28:11;;;;;;;9.70;6.82;;;3.80;66.00;;;;;;5102312;28;27406;-59
2021/04/17 03:31:22;;;;;;;9.27;6.20;;;3.80;65.80;;;;;;5106165;28;27445;-59
2021/04/17 03:34:35;;;;;;;8.88;5.63;;;3.80;65.80;;;;;;5105106;28;27457;-58
2021/04/17 03:38:03;;;;;;;8.48;6.40;;;3.70;65.70;;;;;;5105549;28;27429;-58
2021/04/17 03:41:15;;;;;;;8.18;6.43;;;3.70;65.70;;;;;;5105992;28;27461;-59
2021/04/17 03:44:26;;;;;;;12.32;7.18;;;3.70;65.70;;;;;;5106038;28;27346;-58
2021/04/17 03:47:53;;;;;;;9.38;6.65;;;3.70;65.70;;;;;;5104271;28;27883;-60
2021/04/17 03:51:34;;;;;;;10.80;6.82;;;3.70;65.90;;;;;;5102557;28;27969;-59
2021/04/17 03:55:01;;;;;;;9.25;6.65;;;3.70;65.70;;;;;;5102622;28;27407;-59
2021/04/17 03:58:34;;;;;;;10.98;6.80;;;3.70;65.90;;;;;;5105672;28;27439;-60
2021/04/17 04:02:06;;;;;;;10.10;6.68;;;3.60;65.90;;;;;;5105063;28;27391;-58
2021/04/17 04:05:33;;;;;;;9.35;6.40;;;3.60;65.90;;;;;;5104361;28;28042;-59
2021/04/17 04:08:54;;;;;;;12.18;7.00;;;3.60;66.00;;;;;;5101538;28;27491;-59
2021/04/17 04:11:59;;;;;;;9.73;6.78;;;3.60;66.20;;;;;;5105757;28;27394;-59
2021/04/17 04:14:59;;;;;;;10.10;6.57;;;3.50;66.30;;;;;;5105328;28;27396;-58
2021/04/17 04:18:27;;;;;;;12.90;7.28;;;3.50;66.40;;;;;;5105372;28;27844;-60
2021/04/17 04:22:06;;;;;;;9.13;6.55;;;3.50;66.60;;;;;;5103651;28;27485;-59
2021/04/17 04:25:34;;;;;;;8.48;6.45;;;3.50;66.70;;;;;;5104000;28;27404;-58
2021/04/17 04:28:53;;;;;;;11.25;7.47;;;3.50;66.80;;;;;;5105018;28;27345;-58
2021/04/17 04:31:55;;;;;;;10.45;7.00;;;3.50;66.90;;;;;;5103922;28;27841;-58
2021/04/17 04:35:01;;;;;;;13.02;7.03;;;3.50;67.10;;;;;;5102023;28;27469;-60
2021/04/17 04:38:12;;;;;;;9.52;6.75;;;3.50;67.10;;;;;;5105371;28;27454;-61
2021/04/17 04:41:25;;;;;;;11.55;7.40;;;3.50;67.30;;;;;;5102910;28;27419;-59
2021/04/17 04:44:39;;;;;;;12.13;7.55;;;3.40;67.40;;;;;;5105024;28;27401;-59
2021/04/17 04:47:39;;;;;;;9.30;6.63;;;3.40;67.60;;;;;;5100787;28;27427;-58
2021/04/17 04:51:07;;;;;;;10.35;7.05;;;3.40;67.60;;;;;;5105317;28;27537;-59
2021/04/17 04:54:27;;;;;;;10.65;7.13;;;3.40;67.80;;;;;;5100811;28;27499;-59
2021/04/17 04:57:29;;;;;;;11.90;7.53;;;3.40;67.90;;;;;;5104433;28;27651;-58
2021/04/17 05:00:42;;;;;;;10.48;7.57;;;3.40;67.90;;;;;;5104348;28;27398;-58
2021/04/17 05:03:53;;;;;;;16.05;7.43;;;3.40;67.90;;;;;;5104889;28;27377;-60
2021/04/17 05:07:04;;;;;;;12.13;7.72;;;3.40;68.00;;;;;;5103176;28;27458;-59
2021/04/17 05:10:31;;;;;;;10.82;7.25;;;3.40;68.20;;;;;;5103476;27;27341;-58
2021/04/17 05:14:23;;;;;;;10.73;7.03;;;3.40;68.30;;;;;;5100928;28;27357;-58
2021/04/17 05:17:28;;;;;;;13.38;9.85;;;3.40;68.50;;;;;;5104513;28;27320;-58
2021/04/17 05:20:34;;;;;;;11.98;8.18;;;3.50;68.80;;;;;;5099857;28;27440;-58
2021/04/17 05:23:45;;;;;;;10.52;7.60;;;3.50;69.00;;;;;;5103743;28;27897;-59
2021/04/17 05:26:56;;;;;;;11.13;8.02;;;3.50;69.10;;;;;;5103644;28;27495;-59
2021/04/17 05:30:02;;;;;;;11.55;8.07;;;3.60;69.30;;;;;;5104103;28;27338;-59
2021/04/17 05:33:09;;;;;;;10.13;7.65;;;3.60;69.40;;;;;;5103619;28;27477;-58
2021/04/17 05:36:14;;;;;;;13.88;8.73;;;3.70;69.70;;;;;;5101767;28;27473;-59
2021/04/17 05:39:08;;;;;;;12.13;7.95;;;3.70;69.70;;;;;;5103555;28;27434;-59
2021/04/17 05:42:19;;;;;;;11.15;8.20;;;3.80;69.80;;;;;;5104119;28;27477;-58
2021/04/17 05:45:21;;;;;;;13.85;9.50;;;3.90;70.80;;;;;;5103872;28;27561;-59
2021/04/17 05:48:26;;;;;;;10.45;7.80;;;3.90;70.10;;;;;;5100772;28;27898;-59
2021/04/17 05:51:41;;;;;;;11.27;8.35;;;3.90;70.10;;;;;;5103133;28;27494;-59
2021/04/17 05:55:03;;;;;;;12.05;9.00;;;3.90;70.30;;;;;;5103963;28;27418;-58
2021/04/17 05:58:06;;;;;;;11.57;8.23;;;4.00;70.50;;;;;;5104151;28;27412;-59
2021/04/17 06:00:52;;;;;;;10.98;8.00;;;4.00;70.70;;;;;;5103769;28;27366;-59
2021/04/17 06:03:36;;;;;;;14.02;8.15;;;4.10;70.80;;;;;;5103912;28;27494;-61
2021/04/17 06:06:45;;;;;;;13.30;8.55;;;4.10;71.10;;;;;;5100536;28;27374;-59
2021/04/17 06:10:02;;;;;;;11.30;8.57;;;4.20;71.20;;;;;;5102164;28;27038;-59
2021/04/17 06:13:05;;;;;;;13.30;8.75;;;4.20;71.40;;;;;;5102926;28;27968;-59
2021/04/17 06:16:10;;;;;;;15.07;10.57;;;4.30;71.40;;;;;;5102916;28;27427;-59
2021/04/17 06:19:16;;;;;;;15.43;10.20;;;4.30;70.50;;;;;;5103703;28;27452;-59
2021/04/17 06:22:21;;;;;;;16.48;9.52;;;4.40;70.60;;;;;;5101867;28;27419;-59
2021/04/17 06:25:26;;;;;;;13.50;9.68;;;4.40;71.10;;;;;;5103437;28;27872;-59
2021/04/17 06:28:10;;;;;;;15.63;10.63;;;4.50;71.10;;;;;;5103494;28;27598;-59
2021/04/17 06:31:26;;;;;;;15.85;10.63;;;4.50;71.60;;;;;;5103419;28;27435;-59
2021/04/17 06:34:50;;;;;;;20.80;12.18;;;4.50;70.90;;;;;;5103040;28;27352;-61
2021/04/17 06:37:55;;;;;;;16.83;12.23;;;4.60;71.00;;;;;;5103174;28;27502;-59
2021/04/17 06:41:02;;;;;;;33.95;20.55;;;4.60;72.10;;;;;;5102766;28;27415;-59
2021/04/17 06:44:07;;;;;;;27.55;19.60;;;4.70;71.20;;;;;;5101127;28;27458;-59
2021/04/17 06:47:22;;;;;;;22.70;16.02;;;4.80;72.10;;;;;;5103394;28;27405;-59
2021/04/17 06:50:28;;;;;;;19.58;13.90;;;4.90;71.40;;;;;;5100622;28;27380;-59
2021/04/17 06:53:36;;;;;;;20.42;14.57;;;5.00;71.90;;;;;;5103128;28;27332;-59
2021/04/17 06:56:39;;;;;;;21.17;14.38;;;5.10;71.70;;;;;;5103375;28;27340;-59
2021/04/17 06:59:56;;;;;;;20.23;13.63;;;5.20;71.90;;;;;;5102062;28;27352;-60
2021/04/17 07:03:30;;;;;;;20.27;12.65;;;5.30;71.70;;;;;;5102468;28;27879;-59
2021/04/17 07:06:35;;;;;;;17.35;12.18;;;5.30;72.00;;;;;;5101486;28;27350;-59
2021/04/17 07:09:46;;;;;;;21.90;16.58;;;5.40;72.30;;;;;;5102955;28;27371;-59
2021/04/17 07:13:06;;;;;;;22.05;14.25;;;5.50;72.90;;;;;;5102607;28;27422;-60
2021/04/17 07:16:07;;;;;;;20.02;14.57;;;5.50;73.50;;;;;;5102768;28;27347;-59
2021/04/17 07:19:34;;;;;;;20.73;13.25;;;5.60;73.50;;;;;;5102630;28;27468;-59
2021/04/17 07:22:39;;;;;;;17.75;13.05;;;5.60;72.90;;;;;;5102706;28;27323;-61
2021/04/17 07:25:45;;;;;;;16.33;12.80;;;5.70;72.90;;;;;;5098750;28;27378;-59
2021/04/17 07:29:07;;;;;;;18.67;12.93;;;5.70;73.00;;;;;;5101721;28;27396;-60
2021/04/17 07:32:39;;;;;;;20.30;13.00;;;5.80;72.90;;;;;;5102307;28;27449;-60
2021/04/17 07:36:24;;;;;;;20.58;13.18;;;5.80;72.50;;;;;;5106222;28;27457;-60
2021/04/17 07:39:33;;;;;;;19.08;13.68;;;5.90;72.70;;;;;;5105260;28;27616;-60
2021/04/17 07:43:00;;;;;;;17.88;13.60;;;6.10;72.20;;;;;;5105367;28;27383;-60
2021/04/17 07:46:23;;;;;;;16.88;12.25;;;6.30;72.30;;;;;;5106949;28;27418;-60
2021/04/17 07:49:22;;;;;;;17.95;13.85;;;6.70;71.40;;;;;;5107353;28;27383;-60
2021/04/17 07:52:13;;;;;;;21.50;12.63;;;7.10;70.50;;;;;;5106851;28;27378;-60
2021/04/17 07:55:05;;;;;;;18.35;13.48;;;7.70;68.80;;;;;;5106790;28;27324;-60
2021/04/17 07:58:21;;;;;;;18.33;13.90;;;8.00;67.70;;;;;;5106811;28;27461;-60
2021/04/17 08:01:49;;;;;;;19.10;13.30;;;8.30;66.50;;;;;;5105365;28;27437;-60
2021/04/17 08:05:07;;;;;;;16.60;12.63;;;8.80;65.70;;;;;;5106707;28;27444;-60
2021/04/17 08:08:21;;;;;;;18.15;13.50;;;9.50;64.30;;;;;;5104188;28;27609;-60
2021/04/17 08:11:36;;;;;;;17.92;12.98;;;10.10;62.80;;;;;;5106605;28;27316;-60
2021/04/17 08:14:50;;;;;;;20.08;13.27;;;10.70;61.70;;;;;;5106636;28;27332;-60
2021/04/17 08:18:42;;;;;;;19.48;13.95;;;11.20;61.60;;;;;;5103388;28;27379;-60
2021/04/17 08:22:13;;;;;;;14.60;12.35;;;11.90;59.00;;;;;;5104730;28;27465;-60
2021/04/17 08:25:44;;;;;;;18.10;12.30;;;12.30;58.60;;;;;;5104679;28;27615;-61
2021/04/17 08:28:46;;;;;;;18.00;13.20;;;12.20;59.30;;;;;;5106451;28;27343;-60
2021/04/17 08:31:37;;;;;;;17.83;13.07;;;12.00;59.80;;;;;;5102828;28;27432;-60
2021/04/17 08:34:57;;;;;;;17.13;13.32;;;11.80;59.80;;;;;;5105996;28;27875;-61
2021/04/17 08:37:56;;;;;;;20.58;13.80;;;11.50;60.90;;;;;;5106121;28;27416;-61
2021/04/17 08:41:39;;;;;;;20.05;12.60;;;11.10;61.40;;;;;;5105922;28;27343;-60
2021/04/17 08:44:35;;;;;;;20.83;14.15;;;10.90;62.50;;;;;;5105578;28;27394;-60
2021/04/17 08:48:20;;;;;;;19.90;13.43;;;10.70;63.30;;;;;;5105887;28;27943;-60
2021/04/17 08:52:23;;;;;;;17.65;12.25;;;10.60;64.00;;;;;;5105505;28;27488;-60
2021/04/17 08:55:37;;;;;;;19.05;13.73;;;10.70;64.80;;;;;;5105465;28;27390;-61
2021/04/17 08:59:05;;;;;;;15.93;11.82;;;11.00;64.60;;;;;;5104614;28;27477;-61
2021/04/17 09:02:25;;;;;;;17.02;12.60;;;11.40;63.20;;;;;;5105048;28;27448;-61
2021/04/17 09:05:15;;;;;;;19.08;13.55;;;12.00;61.60;;;;;;5105697;28;27545;-61
2021/04/17 09:08:12;;;;;;;18.50;12.25;;;12.60;60.30;;;;;;5105573;28;27432;-62
2021/04/17 09:11:32;;;;;;;16.23;11.70;;;13.40;58.90;;;;;;5102408;28;27345;-61
2021/04/17 09:14:50;;;;;;;17.92;12.35;;;14.00;57.20;;;;;;5105718;28;27593;-61
2021/04/17 09:17:40;;;;;;;14.88;11.25;;;14.20;55.30;;;;;;5105918;28;27394;-62
2021/04/17 09:21:12;;;;;;;15.18;12.05;;;14.10;54.60;;;;;;5105117;28;27600;-61
2021/04/17 09:24:41;;;;;;;12.02;9.55;;;14.00;55.30;;;;;;5101865;28;27350;-62
2021/04/17 09:27:51;;;;;;;20.90;11.77;;;13.90;56.70;;;;;;5101305;28;27419;-61
2021/04/17 09:30:50;;;;;;;16.05;12.48;;;13.80;56.80;;;;;;5105231;28;27393;-61
2021/04/17 09:34:05;;;;;;;11.85;9.73;;;13.60;56.70;;;;;;5104713;28;27426;-61
2021/04/17 09:37:18;;;;;;;15.82;8.30;;;13.50;56.70;;;;;;5104992;28;27415;-61
2021/04/17 09:40:28;;;;;;;9.05;6.78;;;13.40;57.20;;;;;;5104904;28;27474;-61
2021/04/17 09:43:35;;;;;;;7.30;5.63;;;13.50;58.20;;;;;;5100621;28;27316;-62
2021/04/17 09:47:02;;;;;;;11.63;8.18;;;13.80;60.30;;;;;;5105478;28;27314;-62
2021/04/17 09:50:21;;;;;;;9.07;6.38;;;13.90;56.60;;;;;;5104916;28;27381;-62
2021/04/17 09:53:18;;;;;;;7.75;4.80;;;14.00;55.90;;;;;;5104798;28;27839;-61
2021/04/17 09:56:32;;;;;;;8.50;4.30;;;14.00;57.20;;;;;;5104634;28;27350;-61
2021/04/17 09:59:41;;;;;;;5.80;3.92;;;13.90;57.20;;;;;;5104867;28;27434;-62
2021/04/17 10:02:43;;;;;;;4.18;3.10;;;13.80;57.10;;;;;;5104170;28;27327;-62
2021/04/17 10:06:14;;;;;;;4.13;3.42;;;13.90;58.20;;;;;;5105170;28;27344;-61
2021/04/17 10:09:11;;;;;;;3.08;2.58;;;14.00;57.50;;;;;;5104997;28;27393;-62
2021/04/17 10:13:29;;;;;;;5.22;2.70;;;13.90;57.40;;;;;;5101201;28;27399;-62
2021/04/17 10:16:36;;;;;;;3.63;3.17;;;14.30;55.20;;;;;;5104651;28;27450;-61
2021/04/17 10:20:01;;;;;;;4.55;2.15;;;14.30;54.30;;;;;;5104710;28;27821;-62
2021/04/17 10:23:21;;;;;;;7.93;2.55;;;14.30;55.30;;;;;;5104367;28;27429;-61
2021/04/17 10:26:47;;;;;;;4.18;3.25;;;14.30;56.00;;;;;;5104389;28;27438;-62
2021/04/17 10:30:13;;;;;;;5.95;2.30;;;14.20;56.20;;;;;;5104193;28;27506;-62
2021/04/17 10:33:33;;;;;;;6.88;4.13;;;13.90;56.70;;;;;;5104576;28;27953;-61
2021/04/17 10:37:39;;;;;;;7.47;3.88;;;13.70;54.40;;;;;;5101067;28;27544;-62
2021/04/17 10:41:20;;;;;;;5.93;4.72;;;13.40;54.80;;;;;;5100382;28;27332;-61
2021/04/17 10:44:32;;;;;;;8.57;4.65;;;13.20;55.50;;;;;;5104601;28;27320;-61
2021/04/17 10:47:34;;;;;;;7.07;4.80;;;13.20;55.30;;;;;;5102849;28;27430;-61
2021/04/17 10:51:02;;;;;;;8.40;4.90;;;13.30;55.40;;;;;;5103860;28;27427;-62
2021/04/17 10:54:12;;;;;;;6.95;4.72;;;13.50;57.30;;;;;;5104338;28;27518;-61
2021/04/17 10:57:01;;;;;;;6.95;5.03;;;13.90;58.40;;;;;;5104555;28;27328;-62
2021/04/17 11:00:13;;;;;;;7.65;5.28;;;14.10;57.80;;;;;;5104000;28;27898;-62
2021/04/17 11:03:27;;;;;;;6.75;4.45;;;14.10;57.20;;;;;;5104259;28;27407;-62
2021/04/17 11:06:18;;;;;;;5.15;4.00;;;14.20;58.90;;;;;;5104362;28;27382;-62
2021/04/17 11:09:18;;;;;;;5.88;4.03;;;14.20;58.80;;;;;;5105164;27;27401;-61
2021/04/17 11:12:30;;;;;;;5.95;3.63;;;14.20;58.00;;;;;;5107516;28;27488;-61
2021/04/17 11:15:43;;;;;;;6.22;4.10;;;14.30;57.80;;;;;;5106714;28;27412;-62
2021/04/17 11:18:46;;;;;;;5.80;3.75;;;14.40;58.50;;;;;;5106608;28;27429;-63
2021/04/17 11:22:06;;;;;;;6.32;3.58;;;14.50;55.80;;;;;;5106657;28;27573;-63
2021/04/17 11:25:05;;;;;;;4.00;3.28;;;14.60;55.40;;;;;;5107607;28;27395;-61
2021/04/17 11:28:33;;;;;;;5.28;3.83;;;14.80;54.50;;;;;;5103674;28;27527;-62
2021/04/17 11:32:21;;;;;;;5.10;4.05;;;15.10;54.20;;;;;;5103896;28;27320;-62
2021/04/17 11:36:08;;;;;;;7.53;3.03;;;15.30;54.10;;;;;;5103991;28;27397;-61
2021/04/17 11:39:21;;;;;;;6.78;3.22;;;15.30;54.50;;;;;;5106578;28;27414;-64
2021/04/17 11:42:36;;;;;;;5.35;3.08;;;15.30;55.00;;;;;;5107239;28;27433;-63
2021/04/17 11:45:37;;;;;;;4.88;3.47;;;15.30;53.20;;;;;;5104170;28;27357;-61
2021/04/17 11:48:23;;;;;;;5.80;3.28;;;15.20;52.20;;;;;;5107250;28;27460;-61
2021/04/17 11:51:36;;;;;;;3.55;3.10;;;15.20;52.30;;;;;;5103291;28;27390;-62
2021/04/17 11:54:43;;;;;;;4.38;3.08;;;15.30;53.00;;;;;;5106926;28;27399;-61
2021/04/17 11:57:43;;;;;;;6.55;3.80;;;15.30;53.90;;;;;;5107260;28;27365;-61
2021/04/17 12:00:44;;;;;;;5.25;3.60;;;15.40;54.00;;;;;;5103367;28;27423;-62
2021/04/17 12:03:57;;;;;;;3.35;2.75;;;15.30;54.00;;;;;;5106736;28;27308;-63
2021/04/17 12:07:24;;;;;;;5.55;2.92;;;15.30;54.00;;;;;;5106716;28;27591;-62
2021/04/17 12:10:51;;;;;;;5.53;3.85;;;15.30;53.20;;;;;;5106328;28;27393;-62
2021/04/17 12:14:30;;;;;;;4.60;2.55;;;15.20;53.20;;;;;;5106342;28;27427;-62
2021/04/17 12:18:13;;;;;;;13.95;3.88;;;15.20;54.10;;;;;;5106521;28;27856;-62
2021/04/17 12:21:40;;;;;;;3.88;2.83;;;15.10;53.10;;;;;;5104135;27;27589;-61
2021/04/17 12:24:24;;;;;;;5.20;3.10;;;15.10;53.50;;;;;;5106191;28;27393;-64
2021/04/17 12:27:32;;;;;;;6.03;3.03;;;15.20;54.00;;;;;;5105995;28;27458;-63
2021/04/17 12:30:43;;;;;;;5.43;3.50;;;15.10;53.10;;;;;;5106035;28;27462;-61
2021/04/17 12:33:40;;;;;;;8.35;2.88;;;15.10;53.30;;;;;;5104856;28;27521;-62
2021/04/17 12:37:08;;;;;;;7.35;2.80;;;15.00;53.20;;;;;;5106579;28;27427;-62
2021/04/17 12:40:35;;;;;;;5.05;3.45;;;15.00;52.70;;;;;;5105632;28;27621;-61
2021/04/17 12:44:27;;;;;;;5.07;3.25;;;15.00;53.20;;;;;;5103196;28;27859;-62
2021/04/17 12:47:54;;;;;;;7.03;3.28;;;14.90;52.50;;;;;;5103758;28;27668;-62
2021/04/17 12:50:49;;;;;;;3.72;2.47;;;15.00;52.90;;;;;;5106454;28;27449;-62
2021/04/17 12:54:17;;;;;;;5.05;2.78;;;15.00;52.60;;;;;;5106270;28;27401;-62
2021/04/17 12:58:04;;;;;;;4.90;3.35;;;15.00;53.30;;;;;;5105858;28;27401;-62
2021/04/17 13:01:22;;;;;;;4.40;3.30;;;15.00;52.80;;;;;;5104563;27;27429;-62
2021/04/17 13:04:19;;;;;;;4.80;3.42;;;14.90;51.90;;;;;;5105923;28;27398;-62
2021/04/17 13:07:34;;;;;;;7.78;3.13;;;14.80;52.50;;;;;;5104987;28;27394;-62
2021/04/17 13:10:50;;;;;;;4.22;2.35;;;14.80;54.50;;;;;;5106116;28;28059;-62
2021/04/17 13:13:55;;;;;;;3.08;2.78;;;14.80;53.20;;;;;;5105213;28;27413;-62
2021/04/17 13:17:00;;;;;;;4.63;3.25;;;14.80;51.80;;;;;;5104762;28;27407;-62
2021/04/17 13:20:06;;;;;;;4.78;3.58;;;14.70;51.40;;;;;;5104855;28;27390;-61
2021/04/17 13:23:23;;;;;;;5.22;2.88;;;14.70;51.20;;;;;;5105784;28;27868;-61
2021/04/17 13:26:38;;;;;;;6.18;2.95;;;14.50;51.10;;;;;;5102851;28;27452;-62
2021/04/17 13:29:54;;;;;;;6.32;2.80;;;14.50;52.00;;;;;;5104395;28;27565;-61
2021/04/17 13:33:19;;;;;;;3.70;2.45;;;14.30;52.40;;;;;;5104580;27;27477;-61
2021/04/17 13:36:23;;;;;;;3.60;2.72;;;14.20;52.30;;;;;;5105747;28;27407;-61
2021/04/17 13:39:50;;;;;;;3.75;3.13;;;14.10;51.80;;;;;;5105491;28;27493;-61
2021/04/17 13:43:15;;;;;;;4.93;3.25;;;14.00;52.60;;;;;;5104563;28;27418;-62
2021/04/17 13:46:23;;;;;;;4.38;2.75;;;13.90;52.50;;;;;;5105490;28;27446;-62
2021/04/17 13:49:10;;;;;;;4.63;3.10;;;13.80;52.70;;;;;;5105361;28;27406;-61
2021/04/17 13:51:57;;;;;;;3.92;2.70;;;13.70;53.20;;;;;;5104305;28;27395;-62
2021/04/17 13:55:13;;;;;;;3.90;3.00;;;13.60;53.90;;;;;;5104403;28;27378;-61
2021/04/17 13:58:17;;;;;;;4.60;2.58;;;13.60;53.80;;;;;;5104514;28;27426;-61
2021/04/17 14:01:22;;;;;;;3.63;2.50;;;13.60;53.40;;;;;;5104512;28;27391;-61
2021/04/17 14:04:27;;;;;;;4.28;2.80;;;13.60;52.80;;;;;;5105103;28;27382;-60
2021/04/17 14:07:12;;;;;;;4.18;2.75;;;13.70;52.80;;;;;;5104707;28;27418;-64
2021/04/17 14:10:17;;;;;;;3.15;2.85;;;13.60;51.90;;;;;;5105203;28;27378;-62
2021/04/17 14:13:22;;;;;;;3.83;2.60;;;13.60;52.10;;;;;;5105418;28;27832;-61
2021/04/17 14:16:28;;;;;;;4.72;3.28;;;13.60;52.00;;;;;;5100773;28;27336;-61
2021/04/17 14:19:33;;;;;;;4.10;2.88;;;13.50;52.30;;;;;;5104982;28;27437;-61
2021/04/17 14:22:38;;;;;;;3.35;2.03;;;13.40;52.60;;;;;;5103764;28;27398;-62
2021/04/17 14:25:53;;;;;;;5.15;2.97;;;13.40;53.20;;;;;;5104813;28;27946;-61
2021/04/17 14:29:02;;;;;;;4.82;2.90;;;13.30;53.30;;;;;;5103717;28;27420;-61
2021/04/17 14:32:39;;;;;;;5.32;2.53;;;13.30;52.50;;;;;;5103970;28;27573;-61
2021/04/17 14:35:54;;;;;;;3.95;3.10;;;13.20;53.50;;;;;;5101500;28;27364;-61
2021/04/17 14:39:08;;;;;;;4.75;2.42;;;13.20;52.90;;;;;;5100591;28;27804;-62
2021/04/17 14:42:35;;;;;;;3.97;2.78;;;13.20;53.60;;;;;;5104573;28;27413;-62
2021/04/17 14:45:29;;;;;;;5.63;2.45;;;13.10;52.90;;;;;;5104361;28;27423;-61
2021/04/17 14:48:23;;;;;;;5.93;2.95;;;13.10;53.60;;;;;;5103956;28;27351;-61
2021/04/17 14:51:24;;;;;;;4.18;2.78;;;13.00;53.80;;;;;;5104195;28;28014;-62
2021/04/17 14:54:30;;;;;;;5.75;3.05;;;13.00;54.30;;;;;;5101204;28;27480;-61
2021/04/17 14:57:15;;;;;;;3.58;2.65;;;13.00;53.40;;;;;;5100572;28;26895;-64
2021/04/17 15:00:40;;;;;;;5.47;2.67;;;13.00;53.50;;;;;;5078220;28;27465;-62
2021/04/17 15:04:03;;;;;;;4.40;2.95;;;13.00;53.70;;;;;;5083664;28;28032;-62
2021/04/17 15:07:16;;;;;;;7.22;2.60;;;12.90;53.40;;;;;;5083611;28;27371;-61
2021/04/17 15:10:44;;;;;;;3.72;2.70;;;12.90;53.30;;;;;;5083879;28;27332;-62
2021/04/17 15:13:57;;;;;;;6.45;3.13;;;12.80;53.00;;;;;;5083818;28;27382;-62
2021/04/17 15:17:24;;;;;;;4.18;2.70;;;12.70;52.80;;;;;;5083425;28;27383;-63
2021/04/17 15:20:47;;;;;;;2.90;2.38;;;12.70;53.50;;;;;;5081479;28;27606;-61
2021/04/17 15:24:01;;;;;;;4.57;2.63;;;12.70;53.40;;;;;;5083833;28;27430;-61
2021/04/17 15:27:30;;;;;;;3.30;2.40;;;12.60;54.30;;;;;;5083731;28;27324;-61
2021/04/17 15:30:44;;;;;;;6.30;2.50;;;12.60;54.00;;;;;;5083600;28;27476;-61
2021/04/17 15:34:00;;;;;;;3.58;2.80;;;12.60;55.10;;;;;;5083569;28;27469;-61
2021/04/17 15:37:31;;;;;;;6.35;3.00;;;12.50;53.90;;;;;;5083324;28;27404;-61
2021/04/17 15:40:47;;;;;;;4.22;2.50;;;12.60;54.60;;;;;;5083013;28;27379;-61
2021/04/17 15:44:14;;;;;;;4.53;2.45;;;12.50;54.60;;;;;;5083398;28;27428;-62
2021/04/17 15:47:43;;;;;;;6.32;2.70;;;12.60;53.90;;;;;;5080642;28;27383;-61
2021/04/17 15:50:49;;;;;;;4.60;2.88;;;12.60;53.70;;;;;;5081867;28;27376;-61
2021/04/17 15:53:50;;;;;;;5.28;2.92;;;12.60;53.50;;;;;;5079327;28;27402;-62
2021/04/17 16:14:36;;;;;;;9.77;3.38;;;12.60;57.00;;;;;;5085710;28;27476;-62
2021/04/17 16:17:26;;;;;;;8.65;2.70;;;12.60;58.80;;;;;;5086557;28;27395;-61
2021/04/17 16:20:16;;;;;;;5.55;3.13;;;12.60;59.80;;;;;;5085655;28;27465;-65
2021/04/17 16:23:42;;;;;;;3.92;3.15;;;12.70;58.50;;;;;;5086153;28;27411;-62
2021/04/17 16:27:09;;;;;;;4.65;3.00;;;12.70;57.60;;;;;;5085625;28;27367;-63
2021/04/17 16:30:38;;;;;;;9.63;3.97;;;12.70;57.60;;;;;;5084980;28;28249;-63
2021/04/17 16:33:44;;;;;;;9.55;2.92;;;12.60;59.10;;;;;;5082655;28;27316;-61
2021/04/17 16:37:13;;;;;;;4.22;3.00;;;12.60;57.70;;;;;;5085670;28;27355;-64
2021/04/17 16:41:18;;;;;;;4.63;3.20;;;12.50;57.50;;;;;;5084340;28;27660;-62
2021/04/17 16:44:46;;;;;;;7.47;3.47;;;12.40;58.00;;;;;;5085676;28;27413;-62
2021/04/17 16:48:11;;;;;;;23.55;6.13;;;12.30;58.00;;;;;;5085914;28;27464;-62
2021/04/17 16:51:18;;;;;;;23.83;5.93;;;12.30;59.90;;;;;;5085362;28;27400;-62
2021/04/17 16:54:35;;;;;;;25.73;5.97;;;12.20;63.20;;;;;;5085035;28;27391;-63
2021/04/17 16:58:03;;;;;;;23.65;6.75;;;12.20;64.30;;;;;;5085650;28;27385;-66
2021/04/17 17:01:59;;;;;;;16.90;5.40;;;12.10;66.80;;;;;;5084534;28;27354;-64
2021/04/17 17:05:17;;;;;;;12.82;5.57;;;12.00;65.70;;;;;;5082503;28;27355;-62
2021/04/17 17:08:24;;;;;;;16.83;5.88;;;11.90;64.80;;;;;;5082860;28;27479;-65
2021/04/17 17:11:16;;;;;;;11.30;4.10;;;11.90;63.40;;;;;;5084538;28;27317;-65